createdAt,value
2023-03-17T00:00:44.828Z,70.14
2023-03-17T00:03:24.867Z,70.01
2023-03-17T00:05:57.507Z,70.15
2023-03-17T00:08:29.001Z,70.30
2023-03-17T00:10:57.710Z,70.93
2023-03-17T00:13:27.022Z,70.43
2023-03-17T00:15:58.666Z,70.18
2023-03-17T00:18:27.393Z,70.02
2023-03-17T00:20:55.438Z,70.63
2023-03-17T00:23:25.513Z,71.14
2023-03-17T00:25:54.470Z,70.99
2023-03-17T00:28:24.846Z,71.56
2023-03-17T00:30:59.422Z,71.53
2023-03-17T00:33:29.954Z,71.22
2023-03-17T00:35:58.896Z,71.26
2023-03-17T00:38:26.828Z,71.75
2023-03-17T00:40:54.943Z,72.04
2023-03-17T00:43:23.395Z,72.21
2023-03-17T00:45:51.462Z,69.80
2023-03-17T00:48:21.407Z,69.48
2023-03-17T00:50:50.776Z,69.76
2023-03-17T00:53:21.720Z,70.12
2023-03-17T00:55:50.150Z,70.58
2023-03-17T00:58:25.779Z,71.44
2023-03-17T01:00:55.311Z,71.74
2023-03-17T01:03:24.076Z,71.87
2023-03-17T01:05:54.847Z,71.90
2023-03-17T01:08:23.968Z,72.93
2023-03-17T01:10:52.857Z,73.29
2023-03-17T01:13:20.789Z,73.54
2023-03-17T01:15:50.733Z,73.97
2023-03-17T01:18:21.569Z,73.35
2023-03-17T01:20:51.414Z,72.61
2023-03-17T01:23:19.493Z,72.11
2023-03-17T01:25:47.324Z,72.77
2023-03-17T01:28:18.205Z,72.65
2023-03-17T01:30:47.330Z,72.78
2023-03-17T01:33:15.829Z,73.03
2023-03-17T01:35:45.993Z,73.88
2023-03-17T01:38:15.174Z,73.70
2023-03-17T01:40:49.918Z,73.90
2023-03-17T01:43:23.202Z,74.89
2023-03-17T01:46:22.163Z,74.76
2023-03-17T01:49:17.739Z,74.84
2023-03-17T01:52:04.977Z,74.84
2023-03-17T01:54:48.335Z,75.03
2023-03-17T01:57:23.090Z,75.38
2023-03-17T01:59:58.944Z,75.55
2023-03-17T02:02:32.923Z,75.61
2023-03-17T02:05:03.966Z,75.60
2023-03-17T02:07:33.161Z,76.30
2023-03-17T02:10:03.445Z,76.37
2023-03-17T02:12:32.021Z,76.46
2023-03-17T02:14:59.937Z,76.68
2023-03-17T02:17:28.821Z,76.94
2023-03-17T02:19:57.262Z,77.74
2023-03-17T02:22:25.568Z,77.70
2023-03-17T02:24:58.606Z,77.54
2023-03-17T02:27:33.982Z,77.68
2023-03-17T02:30:03.321Z,77.81
2023-03-17T02:32:35.868Z,78.54
2023-03-17T02:35:05.365Z,78.02
2023-03-17T02:37:33.707Z,78.02
2023-03-17T02:40:02.856Z,78.21
2023-03-17T02:42:32.042Z,78.28
2023-03-17T02:45:00.433Z,78.95
2023-03-17T02:47:28.479Z,78.70
2023-03-17T02:49:57.024Z,78.70
2023-03-17T02:52:26.191Z,78.83
2023-03-17T02:54:54.072Z,79.53
2023-03-17T02:57:22.434Z,79.80
2023-03-17T02:59:50.952Z,79.41
2023-03-17T03:02:18.976Z,79.81
2023-03-17T03:04:47.904Z,80.11
2023-03-17T03:07:16.343Z,80.04
2023-03-17T03:09:44.541Z,80.20
2023-03-17T03:12:14.021Z,80.71
2023-03-17T03:14:42.115Z,80.80
2023-03-17T03:17:10.767Z,80.86
2023-03-17T03:19:39.526Z,80.87
2023-03-17T03:22:08.453Z,81.21
2023-03-17T03:24:36.366Z,81.22
2023-03-17T03:27:04.525Z,81.38
2023-03-17T03:29:32.490Z,81.27
2023-03-17T03:32:00.906Z,81.23
2023-03-17T03:34:29.502Z,81.17
2023-03-17T03:36:57.758Z,81.14
2023-03-17T03:39:26.668Z,81.05
2023-03-17T03:41:58.506Z,80.94
2023-03-17T03:44:26.714Z,81.50
2023-03-17T03:46:55.017Z,81.45
2023-03-17T03:49:23.240Z,81.42
2023-03-17T03:51:51.432Z,81.41
2023-03-17T03:54:19.848Z,81.72
2023-03-17T03:56:47.724Z,81.72
2023-03-17T03:59:16.453Z,82.10
2023-03-17T04:01:45.821Z,82.42
2023-03-17T04:04:14.005Z,83.23
2023-03-17T04:06:42.119Z,84.10
2023-03-17T04:09:10.283Z,85.12
2023-03-17T04:11:38.849Z,84.11
2023-03-17T04:14:06.775Z,84.07
2023-03-17T04:16:34.710Z,83.66
2023-03-17T04:19:03.104Z,83.68
2023-03-17T04:21:31.133Z,83.86
2023-03-17T04:23:59.272Z,83.99
2023-03-17T04:26:27.882Z,83.83
2023-03-17T04:28:55.948Z,84.61
2023-03-17T04:31:24.010Z,85.04
2023-03-17T04:33:53.718Z,84.76
2023-03-17T04:36:24.176Z,84.32
2023-03-17T04:38:52.417Z,84.26
2023-03-17T04:41:21.388Z,84.37
2023-03-17T04:43:49.342Z,84.19
2023-03-17T04:46:17.672Z,84.35
2023-03-17T04:48:45.529Z,84.40
2023-03-17T04:51:13.618Z,84.25
2023-03-17T04:53:42.124Z,84.02
2023-03-17T04:56:09.993Z,84.16
2023-03-17T04:58:38.727Z,84.01
2023-03-17T05:01:08.529Z,84.31
2023-03-17T05:03:36.817Z,84.47
2023-03-17T05:06:05.728Z,84.18
2023-03-17T05:08:34.241Z,84.06
2023-03-17T05:11:02.356Z,84.13
2023-03-17T05:13:30.691Z,84.42
2023-03-17T05:16:00.975Z,84.65
2023-03-17T05:18:29.514Z,84.37
2023-03-17T05:20:57.734Z,84.76
2023-03-17T05:23:26.278Z,84.89
2023-03-17T05:25:54.729Z,84.26
2023-03-17T05:28:22.771Z,84.40
2023-03-17T05:30:52.203Z,84.56
2023-03-17T05:33:20.424Z,84.40
2023-03-17T05:35:51.736Z,84.32
2023-03-17T05:38:21.025Z,84.82
2023-03-17T05:40:52.871Z,84.93
2023-03-17T05:43:21.708Z,84.74
2023-03-17T05:45:50.870Z,85.54
2023-03-17T05:48:18.990Z,86.02
2023-03-17T05:50:47.635Z,87.11
2023-03-17T05:53:16.341Z,85.70
2023-03-17T05:55:44.672Z,85.14
2023-03-17T05:58:12.945Z,84.88
2023-03-17T06:00:41.016Z,83.49
2023-03-17T06:03:10.045Z,83.11
2023-03-17T06:05:38.124Z,82.57
2023-03-17T06:08:06.286Z,81.41
2023-03-17T06:10:37.417Z,80.85
2023-03-17T06:13:05.580Z,81.08
2023-03-17T06:16:00.049Z,79.48
2023-03-17T06:18:28.287Z,78.44
2023-03-17T06:20:56.839Z,78.14
2023-03-17T06:23:26.137Z,78.98
2023-03-17T06:25:54.545Z,78.07
2023-03-17T06:28:23.258Z,76.82
2023-03-17T06:30:51.500Z,74.93
2023-03-17T06:33:20.426Z,73.73
2023-03-17T06:35:48.639Z,71.69
2023-03-17T06:38:21.009Z,69.96
2023-03-17T06:40:52.484Z,67.56
2023-03-17T06:43:22.281Z,67.48
2023-03-17T06:45:52.618Z,66.77
2023-03-17T06:48:20.706Z,64.72
2023-03-17T06:50:49.205Z,64.51
2023-03-17T06:53:17.876Z,64.72
2023-03-17T06:55:46.918Z,64.99
2023-03-17T06:58:16.100Z,64.17
2023-03-17T07:00:45.648Z,62.52
2023-03-17T07:03:14.207Z,62.39
2023-03-17T07:05:42.792Z,61.54
2023-03-17T07:08:11.664Z,61.14
2023-03-17T07:10:43.424Z,62.21
2023-03-17T07:13:12.396Z,63.14
2023-03-17T07:15:41.138Z,62.48
2023-03-17T07:18:09.300Z,63.68
2023-03-17T07:20:38.435Z,61.44
2023-03-17T07:23:06.816Z,61.17
2023-03-17T07:25:37.017Z,60.53
2023-03-17T07:28:05.410Z,59.64
2023-03-17T07:30:34.142Z,58.78
2023-03-17T07:33:02.455Z,58.95
2023-03-17T07:35:32.062Z,59.14
2023-03-17T07:38:00.389Z,59.90
2023-03-17T07:40:28.535Z,58.47
2023-03-17T07:42:57.190Z,58.48
2023-03-17T07:45:25.415Z,57.95
2023-03-17T07:47:54.252Z,57.16
2023-03-17T07:50:22.727Z,57.15
2023-03-17T07:52:50.889Z,55.02
2023-03-17T07:55:19.069Z,56.15
2023-03-17T07:57:47.378Z,55.24
2023-03-17T08:00:17.389Z,55.30
2023-03-17T08:02:53.691Z,53.27
2023-03-17T08:05:27.651Z,49.83
2023-03-17T08:07:55.979Z,49.80
2023-03-17T08:10:24.088Z,51.08
2023-03-17T08:12:53.550Z,49.87
2023-03-17T08:15:22.168Z,49.47
2023-03-17T08:17:50.257Z,49.20
2023-03-17T08:20:20.657Z,48.48
2023-03-17T08:22:49.218Z,50.03
2023-03-17T08:25:25.523Z,48.79
2023-03-17T08:27:54.285Z,49.97
2023-03-17T08:30:22.633Z,48.41
2023-03-17T08:32:50.654Z,47.17
2023-03-17T08:35:19.843Z,42.20
2023-03-17T08:37:48.435Z,36.77
2023-03-17T08:40:19.804Z,32.07
2023-03-17T08:42:49.577Z,30.92
2023-03-17T08:45:18.538Z,29.98
2023-03-17T08:47:49.884Z,29.24
2023-03-17T08:50:25.688Z,28.66
2023-03-17T08:52:54.434Z,29.01
2023-03-17T08:55:23.027Z,29.15
2023-03-17T08:57:51.363Z,28.49
2023-03-17T09:00:21.110Z,28.03
2023-03-17T09:02:49.637Z,26.17
2023-03-17T09:05:20.854Z,26.36
2023-03-17T09:07:50.185Z,27.13
2023-03-17T09:10:22.709Z,26.07
2023-03-17T09:12:51.957Z,27.01
2023-03-17T09:15:20.154Z,26.10
2023-03-17T09:17:49.685Z,26.65
2023-03-17T09:20:19.283Z,27.17
2023-03-17T09:22:49.406Z,27.57
2023-03-17T09:25:18.701Z,29.04
2023-03-17T09:27:49.941Z,28.86
2023-03-17T09:30:18.945Z,26.99
2023-03-17T09:32:47.604Z,28.35
2023-03-17T09:35:16.106Z,28.77
2023-03-17T09:37:44.853Z,27.13
2023-03-17T09:40:22.340Z,29.43
2023-03-17T09:43:06.343Z,27.93
2023-03-17T09:45:38.943Z,27.75
2023-03-17T09:48:18.846Z,29.69
2023-03-17T09:51:02.335Z,30.81
2023-03-17T09:53:36.087Z,33.36
2023-03-17T09:56:23.568Z,31.46
2023-03-17T09:59:00.041Z,32.84
2023-03-17T10:01:28.852Z,31.81
2023-03-17T10:03:57.495Z,31.55
2023-03-17T10:06:34.942Z,32.00
2023-03-17T10:09:26.719Z,31.68
2023-03-17T10:11:59.480Z,33.00
2023-03-17T10:15:00.998Z,31.53
2023-03-17T10:17:35.109Z,32.82
2023-03-17T10:20:12.900Z,30.57
2023-03-17T10:22:48.178Z,30.90
2023-03-17T10:25:20.777Z,32.41
2023-03-17T10:28:21.052Z,30.99
2023-03-17T10:30:50.228Z,31.13
2023-03-17T10:33:18.678Z,32.50
2023-03-17T10:35:48.216Z,31.13
2023-03-17T10:38:22.185Z,31.90
2023-03-17T10:41:03.604Z,31.34
2023-03-17T10:43:39.919Z,29.36
2023-03-17T10:46:26.625Z,32.21
2023-03-17T10:49:02.668Z,31.59
2023-03-17T10:51:35.512Z,30.92
2023-03-17T10:54:10.819Z,30.46
2023-03-17T10:56:42.600Z,30.89
2023-03-17T10:59:32.543Z,30.67
2023-03-17T11:02:05.894Z,30.34
2023-03-17T11:04:41.963Z,30.37
2023-03-17T11:07:16.321Z,30.91
2023-03-17T11:09:49.714Z,30.59
2023-03-17T11:12:55.801Z,29.68
2023-03-17T11:15:24.229Z,30.48
2023-03-17T11:17:59.083Z,30.70
2023-03-17T11:20:45.477Z,30.50
2023-03-17T11:23:26.647Z,30.38
2023-03-17T11:26:07.854Z,30.37
2023-03-17T11:28:41.240Z,30.93
2023-03-17T11:31:21.538Z,30.54
2023-03-17T11:33:56.563Z,31.92
2023-03-17T11:36:34.720Z,29.95
2023-03-17T11:39:11.144Z,31.96
2023-03-17T11:41:55.959Z,32.00
2023-03-17T11:44:23.813Z,30.70
2023-03-17T11:47:23.518Z,31.23
2023-03-17T11:50:20.914Z,29.91
2023-03-17T11:53:20.840Z,30.63
2023-03-17T11:56:00.571Z,31.23
2023-03-17T11:58:28.836Z,29.74
2023-03-17T12:01:00.620Z,31.03
2023-03-17T12:03:43.518Z,30.90
2023-03-17T12:06:21.232Z,30.96
2023-03-17T12:08:56.504Z,30.53
2023-03-17T12:11:29.067Z,31.07
2023-03-17T12:14:05.012Z,30.24
2023-03-17T12:16:46.522Z,29.88
2023-03-17T12:19:30.713Z,30.98
2023-03-17T12:22:05.866Z,31.57
2023-03-17T12:24:40.522Z,31.16
2023-03-17T12:27:39.068Z,32.17
2023-03-17T12:30:20.389Z,31.80
2023-03-17T12:32:57.239Z,31.79
2023-03-17T12:35:29.865Z,29.78
2023-03-17T12:38:12.951Z,31.46
2023-03-17T12:41:13.334Z,32.32
2023-03-17T12:43:53.463Z,31.02
2023-03-17T12:46:49.335Z,30.93
2023-03-17T12:49:25.276Z,31.44
2023-03-17T12:52:12.558Z,30.70
2023-03-17T12:54:46.915Z,30.62
2023-03-17T12:57:21.682Z,31.17
2023-03-17T12:59:58.119Z,29.89
2023-03-17T13:02:29.691Z,29.82
2023-03-17T13:05:02.556Z,29.82
2023-03-17T13:07:54.150Z,30.25
2023-03-17T13:10:45.064Z,30.06
2023-03-17T13:13:21.632Z,30.20
2023-03-17T13:15:55.227Z,31.34
2023-03-17T13:18:45.042Z,30.06
2023-03-17T13:21:16.613Z,30.32
2023-03-17T13:23:53.454Z,30.42
2023-03-17T13:27:02.073Z,31.05
2023-03-17T13:29:33.196Z,30.78
2023-03-17T13:32:34.920Z,30.92
2023-03-17T13:35:20.765Z,30.49
2023-03-17T13:38:14.257Z,31.34
2023-03-17T13:41:13.792Z,31.66
2023-03-17T13:43:43.527Z,31.34
2023-03-17T13:46:44.484Z,31.19
2023-03-17T13:49:19.725Z,30.86
2023-03-17T13:52:07.366Z,31.47
2023-03-17T13:54:50.954Z,31.24
2023-03-17T13:57:26.404Z,31.66
2023-03-17T13:59:59.988Z,31.16
2023-03-17T14:02:32.831Z,31.16
2023-03-17T14:05:06.480Z,31.67
2023-03-17T14:08:05.170Z,31.32
2023-03-17T14:10:34.400Z,31.38
2023-03-17T14:13:05.739Z,31.53
2023-03-17T14:16:05.799Z,31.70
2023-03-17T14:18:36.164Z,32.01
2023-03-17T14:21:12.918Z,31.86
2023-03-17T14:23:41.353Z,31.64
2023-03-17T14:26:12.005Z,32.02
2023-03-17T14:28:39.982Z,31.96
2023-03-17T14:31:18.496Z,32.41
2023-03-17T14:33:46.795Z,33.29
2023-03-17T14:36:14.917Z,31.32
2023-03-17T14:38:54.446Z,32.28
2023-03-17T14:41:28.006Z,32.63
2023-03-17T14:44:00.408Z,32.34
2023-03-17T14:46:37.154Z,32.04
2023-03-17T14:49:15.503Z,32.90
2023-03-17T14:51:44.112Z,32.26
2023-03-17T14:54:19.567Z,31.61
2023-03-17T14:56:52.615Z,31.96
2023-03-17T14:59:26.708Z,32.31
2023-03-17T15:02:03.868Z,31.65
2023-03-17T15:04:34.334Z,32.31
2023-03-17T15:07:09.499Z,31.72
2023-03-17T15:09:40.424Z,31.57
2023-03-17T15:12:26.552Z,30.48
2023-03-17T15:15:03.968Z,31.49
2023-03-17T15:17:35.288Z,31.09
2023-03-17T15:20:15.600Z,31.94
2023-03-17T15:22:58.511Z,31.62
2023-03-17T15:25:39.456Z,32.12
2023-03-17T15:28:19.311Z,31.90
2023-03-17T15:30:52.679Z,31.82
2023-03-17T15:33:21.441Z,32.33
2023-03-17T15:35:50.611Z,32.38
2023-03-17T15:38:18.974Z,32.22
2023-03-17T15:40:47.556Z,33.14
2023-03-17T15:43:16.828Z,32.66
2023-03-17T15:45:45.441Z,33.08
2023-03-17T15:48:24.810Z,33.35
2023-03-17T15:50:55.585Z,32.88
2023-03-17T15:53:24.226Z,33.68
2023-03-17T15:55:52.124Z,34.24
2023-03-17T15:58:20.587Z,34.00
2023-03-17T16:00:53.558Z,34.72
2023-03-17T16:03:32.497Z,34.97
2023-03-17T16:06:02.212Z,34.86
2023-03-17T16:08:30.493Z,34.25
2023-03-17T16:10:58.478Z,35.44
2023-03-17T16:13:26.421Z,35.42
2023-03-17T16:15:57.778Z,36.14
2023-03-17T16:18:34.171Z,36.68
2023-03-17T16:21:04.346Z,36.39
2023-03-17T16:23:37.024Z,36.87
2023-03-17T16:26:14.825Z,37.12
2023-03-17T16:28:45.636Z,37.72
2023-03-17T16:31:31.875Z,38.03
2023-03-17T16:34:00.371Z,38.97
2023-03-17T16:36:28.681Z,39.26
2023-03-17T16:38:56.635Z,39.36
2023-03-17T16:41:27.677Z,39.96
2023-03-17T16:44:01.973Z,40.49
2023-03-17T16:46:35.113Z,41.07
2023-03-17T16:49:05.015Z,39.12
2023-03-17T16:51:33.469Z,40.10
2023-03-17T16:54:01.651Z,39.50
2023-03-17T16:56:31.732Z,40.15
2023-03-17T16:59:00.594Z,39.80
2023-03-17T17:01:29.958Z,40.51
2023-03-17T17:03:58.625Z,39.51
2023-03-17T17:06:26.405Z,39.33
2023-03-17T17:08:54.434Z,39.32
2023-03-17T17:11:23.082Z,40.02
2023-03-17T17:13:51.857Z,40.78
2023-03-17T17:16:28.499Z,41.29
2023-03-17T17:18:57.408Z,41.38
2023-03-17T17:21:26.397Z,41.19
2023-03-17T17:23:55.424Z,41.60
2023-03-17T17:26:23.625Z,41.55
2023-03-17T17:28:51.892Z,42.33
2023-03-17T17:31:20.201Z,42.81
2023-03-17T17:33:48.666Z,43.62
2023-03-17T17:36:17.496Z,42.40
2023-03-17T17:38:46.142Z,42.15
2023-03-17T17:41:14.707Z,42.15
2023-03-17T17:43:43.053Z,42.77
2023-03-17T17:46:15.579Z,42.37
2023-03-17T17:48:43.899Z,42.62
2023-03-17T17:51:12.076Z,43.26
2023-03-17T17:53:40.709Z,43.26
2023-03-17T17:56:14.850Z,44.27
2023-03-17T17:58:43.376Z,44.22
2023-03-17T18:01:14.183Z,44.86
2023-03-17T18:03:43.226Z,44.78
2023-03-17T18:06:13.234Z,44.45
2023-03-17T18:08:41.820Z,44.54
2023-03-17T18:11:10.400Z,45.53
2023-03-17T18:13:39.159Z,45.15
2023-03-17T18:16:12.695Z,45.12
2023-03-17T18:18:43.427Z,45.46
2023-03-17T18:21:12.378Z,45.46
2023-03-17T18:23:47.019Z,46.35
2023-03-17T18:26:16.753Z,45.97
2023-03-17T18:28:45.252Z,46.92
2023-03-17T18:31:18.697Z,46.93
2023-03-17T18:33:49.711Z,47.26
2023-03-17T18:36:19.976Z,47.14
2023-03-17T18:38:53.078Z,47.63
2023-03-17T18:41:21.316Z,47.74
2023-03-17T18:43:49.451Z,47.54
2023-03-17T18:46:17.711Z,47.05
2023-03-17T18:48:46.444Z,47.29
2023-03-17T18:51:15.031Z,46.95
2023-03-17T18:53:43.746Z,47.25
2023-03-17T18:56:11.826Z,47.63
2023-03-17T18:58:40.104Z,47.33
2023-03-17T19:01:08.917Z,48.07
2023-03-17T19:03:37.471Z,48.05
2023-03-17T19:06:15.663Z,49.68
2023-03-17T19:08:44.573Z,48.10
2023-03-17T19:11:16.612Z,47.57
2023-03-17T19:13:46.496Z,48.08
2023-03-17T19:16:16.847Z,48.37
2023-03-17T19:18:46.426Z,48.93
2023-03-17T19:21:14.985Z,48.00
2023-03-17T19:23:43.794Z,48.01
2023-03-17T19:26:12.121Z,48.60
2023-03-17T19:28:40.738Z,47.75
2023-03-17T19:31:09.602Z,47.87
2023-03-17T19:33:38.128Z,47.54
2023-03-17T19:36:13.429Z,47.57
2023-03-17T19:38:41.760Z,47.55
2023-03-17T19:41:10.553Z,47.78
2023-03-17T19:43:41.635Z,48.08
2023-03-17T19:46:12.020Z,47.85
2023-03-17T19:48:40.869Z,48.19
2023-03-17T19:51:09.797Z,48.51
2023-03-17T19:53:37.859Z,49.20
2023-03-17T19:56:06.565Z,49.73
2023-03-17T19:58:35.448Z,51.04
2023-03-17T20:01:04.707Z,51.29
2023-03-17T20:03:34.135Z,51.42
2023-03-17T20:06:06.155Z,52.05
2023-03-17T20:08:35.889Z,53.67
2023-03-17T20:11:05.744Z,53.71
2023-03-17T20:13:35.524Z,53.68
2023-03-17T20:16:06.054Z,53.64
2023-03-17T20:18:35.445Z,53.75
2023-03-17T20:21:08.333Z,55.57
2023-03-17T20:23:37.891Z,55.58
2023-03-17T20:26:07.066Z,55.80
2023-03-17T20:28:35.949Z,56.07
2023-03-17T20:31:04.863Z,56.18
2023-03-17T20:33:33.854Z,56.01
2023-03-17T20:36:03.391Z,56.49
2023-03-17T20:38:36.898Z,56.95
2023-03-17T20:41:11.399Z,56.77
2023-03-17T20:43:40.759Z,56.89
2023-03-17T20:46:14.932Z,56.84
2023-03-17T20:48:44.491Z,57.38
2023-03-17T20:51:16.600Z,56.92
2023-03-17T20:53:46.424Z,56.88
2023-03-17T20:56:16.969Z,57.16
2023-03-17T20:58:47.052Z,57.51
2023-03-17T21:01:20.767Z,57.42
2023-03-17T21:03:49.795Z,57.44
2023-03-17T21:06:18.734Z,57.33
2023-03-17T21:08:47.123Z,57.84
2023-03-17T21:11:18.024Z,57.74
2023-03-17T21:13:47.344Z,57.43
2023-03-17T21:16:25.112Z,57.86
2023-03-17T21:18:53.813Z,58.09
2023-03-17T21:21:23.561Z,58.52
2023-03-17T21:23:51.566Z,58.51
2023-03-17T21:26:20.778Z,58.67
2023-03-17T21:28:48.918Z,59.14
2023-03-17T21:31:17.883Z,58.84
2023-03-17T21:33:50.699Z,58.94
2023-03-17T21:36:20.967Z,59.39
2023-03-17T21:38:49.592Z,59.40
2023-03-17T21:41:32.306Z,59.13
2023-03-17T21:44:01.805Z,59.08
2023-03-17T21:46:31.793Z,59.06
2023-03-17T21:49:01.536Z,59.21
2023-03-17T21:51:30.083Z,58.83
2023-03-17T21:53:58.798Z,58.89
2023-03-17T21:56:27.586Z,58.86
2023-03-17T21:58:56.416Z,59.29
2023-03-17T22:01:24.607Z,60.05
2023-03-17T22:03:53.281Z,59.88
2023-03-17T22:06:22.125Z,59.33
2023-03-17T22:08:50.822Z,59.50
2023-03-17T22:11:19.984Z,59.05
2023-03-17T22:13:48.982Z,58.94
2023-03-17T22:16:18.433Z,58.60
2023-03-17T22:18:47.643Z,58.76
2023-03-17T22:21:15.713Z,58.42
2023-03-17T22:23:44.529Z,58.46
2023-03-17T22:26:15.614Z,58.52
2023-03-17T22:28:45.389Z,58.25
2023-03-17T22:31:25.729Z,58.40
2023-03-17T22:33:56.795Z,59.90
2023-03-17T22:36:26.456Z,59.02
2023-03-17T22:38:55.045Z,58.53
2023-03-17T22:41:26.195Z,58.54
2023-03-17T22:43:54.597Z,58.71
2023-03-17T22:46:22.811Z,58.88
2023-03-17T22:48:51.897Z,58.58
2023-03-17T22:51:22.954Z,58.66
2023-03-17T22:53:52.009Z,58.22
2023-03-17T22:56:20.846Z,58.47
2023-03-17T22:58:48.853Z,58.25
2023-03-17T23:01:18.243Z,58.54
2023-03-17T23:03:47.233Z,58.54
2023-03-17T23:06:15.329Z,58.42
2023-03-17T23:08:44.286Z,58.23
2023-03-17T23:11:18.404Z,58.34
2023-03-17T23:13:47.573Z,58.15
2023-03-17T23:16:16.394Z,58.59
2023-03-17T23:18:46.806Z,58.17
2023-03-17T23:21:22.074Z,58.02
2023-03-17T23:23:50.036Z,57.51
2023-03-17T23:26:18.165Z,57.43
2023-03-17T23:28:46.517Z,57.86
2023-03-17T23:31:16.820Z,57.73
2023-03-17T23:33:47.486Z,57.82
2023-03-17T23:36:17.175Z,57.69
2023-03-17T23:38:46.107Z,57.97
2023-03-17T23:41:14.607Z,57.78
2023-03-17T23:43:44.105Z,57.96
2023-03-17T23:46:14.009Z,58.25
2023-03-17T23:48:43.061Z,58.66
2023-03-17T23:51:12.806Z,59.21
2023-03-17T23:53:41.898Z,59.15
2023-03-17T23:56:11.578Z,61.51
2023-03-17T23:58:42.564Z,60.79
